sensor_id;sensor_type;location;lat;lon;timestamp;temperature;humidity
7934;DHT22;4012;48.896;9.192;2022-08-05T00:01:40;27.10;99.90
7934;DHT22;4012;48.896;9.192;2022-08-05T00:04:06;27.10;99.90
7934;DHT22;4012;48.896;9.192;2022-08-05T00:06:31;27.10;99.90
7934;DHT22;4012;48.896;9.192;2022-08-05T00:08:57;27.10;99.90
7934;DHT22;4012;48.896;9.192;2022-08-05T00:11:24;27.20;99.90
7934;DHT22;4012;48.896;9.192;2022-08-05T00:13:50;27.20;99.90
7934;DHT22;4012;48.896;9.192;2022-08-05T00:16:15;27.20;99.90
7934;DHT22;4012;48.896;9.192;2022-08-05T00:18:44;27.20;99.90
7934;DHT22;4012;48.896;9.192;2022-08-05T00:21:11;27.20;99.90
7934;DHT22;4012;48.896;9.192;2022-08-05T00:23:37;27.30;99.90
7934;DHT22;4012;48.896;9.192;2022-08-05T00:26:03;27.20;99.90
7934;DHT22;4012;48.896;9.192;2022-08-05T00:28:29;27.20;99.90
7934;DHT22;4012;48.896;9.192;2022-08-05T00:30:55;27.20;99.90
7934;DHT22;4012;48.896;9.192;2022-08-05T00:33:20;27.10;99.90
7934;DHT22;4012;48.896;9.192;2022-08-05T00:35:46;27.10;99.90
7934;DHT22;4012;48.896;9.192;2022-08-05T00:38:11;27.10;99.90
7934;DHT22;4012;48.896;9.192;2022-08-05T00:40:52;27.10;99.90
7934;DHT22;4012;48.896;9.192;2022-08-05T00:43:18;27.00;99.90
7934;DHT22;4012;48.896;9.192;2022-08-05T00:45:44;27.00;99.90
7934;DHT22;4012;48.896;9.192;2022-08-05T00:48:13;26.90;99.90
7934;DHT22;4012;48.896;9.192;2022-08-05T00:50:41;26.90;99.90
7934;DHT22;4012;48.896;9.192;2022-08-05T00:53:07;26.90;99.90
7934;DHT22;4012;48.896;9.192;2022-08-05T00:55:33;26.80;99.90
7934;DHT22;4012;48.896;9.192;2022-08-05T00:57:58;26.80;99.90
7934;DHT22;4012;48.896;9.192;2022-08-05T01:00:30;26.80;99.90
7934;DHT22;4012;48.896;9.192;2022-08-05T01:02:56;26.80;99.90
7934;DHT22;4012;48.896;9.192;2022-08-05T01:05:26;26.70;99.90
7934;DHT22;4012;48.896;9.192;2022-08-05T01:07:52;26.50;99.90
7934;DHT22;4012;48.896;9.192;2022-08-05T01:10:22;26.30;99.90
7934;DHT22;4012;48.896;9.192;2022-08-05T01:12:52;26.30;99.90
7934;DHT22;4012;48.896;9.192;2022-08-05T01:15:22;26.20;99.90
7934;DHT22;4012;48.896;9.192;2022-08-05T01:17:59;26.10;99.90
7934;DHT22;4012;48.896;9.192;2022-08-05T01:20:33;26.00;99.90
7934;DHT22;4012;48.896;9.192;2022-08-05T01:28:36;25.60;99.90
7934;DHT22;4012;48.896;9.192;2022-08-05T01:31:14;25.60;99.90
7934;DHT22;4012;48.896;9.192;2022-08-05T01:34:08;25.50;99.90
7934;DHT22;4012;48.896;9.192;2022-08-05T01:36:45;25.40;99.90
7934;DHT22;4012;48.896;9.192;2022-08-05T01:39:12;25.30;99.90
7934;DHT22;4012;48.896;9.192;2022-08-05T01:41:39;25.30;99.90
7934;DHT22;4012;48.896;9.192;2022-08-05T01:44:07;25.20;99.90
7934;DHT22;4012;48.896;9.192;2022-08-05T01:46:34;25.20;99.90
7934;DHT22;4012;48.896;9.192;2022-08-05T01:49:01;25.10;99.90
7934;DHT22;4012;48.896;9.192;2022-08-05T01:51:30;25.10;99.90
7934;DHT22;4012;48.896;9.192;2022-08-05T01:53:58;25.10;99.90
7934;DHT22;4012;48.896;9.192;2022-08-05T01:56:29;25.10;99.90
7934;DHT22;4012;48.896;9.192;2022-08-05T01:58:56;25.10;99.90
7934;DHT22;4012;48.896;9.192;2022-08-05T02:01:24;25.00;99.90
7934;DHT22;4012;48.896;9.192;2022-08-05T02:03:52;25.10;99.90
7934;DHT22;4012;48.896;9.192;2022-08-05T02:06:19;25.10;99.90
7934;DHT22;4012;48.896;9.192;2022-08-05T02:08:45;25.10;99.90
7934;DHT22;4012;48.896;9.192;2022-08-05T02:11:13;25.10;99.90
7934;DHT22;4012;48.896;9.192;2022-08-05T02:16:19;25.10;99.90
7934;DHT22;4012;48.896;9.192;2022-08-05T02:18:53;25.10;99.90
7934;DHT22;4012;48.896;9.192;2022-08-05T02:21:43;25.10;99.90
7934;DHT22;4012;48.896;9.192;2022-08-05T02:24:13;25.20;99.90
7934;DHT22;4012;48.896;9.192;2022-08-05T02:26:47;25.20;99.90
7934;DHT22;4012;48.896;9.192;2022-08-05T02:29:18;25.20;99.90
7934;DHT22;4012;48.896;9.192;2022-08-05T02:31:45;25.10;99.90
7934;DHT22;4012;48.896;9.192;2022-08-05T02:34:13;25.10;99.90
7934;DHT22;4012;48.896;9.192;2022-08-05T02:36:50;25.00;99.90
7934;DHT22;4012;48.896;9.192;2022-08-05T02:39:19;25.00;99.90
7934;DHT22;4012;48.896;9.192;2022-08-05T02:41:46;25.00;99.90
7934;DHT22;4012;48.896;9.192;2022-08-05T02:44:13;25.00;99.90
7934;DHT22;4012;48.896;9.192;2022-08-05T02:46:42;25.00;99.90
7934;DHT22;4012;48.896;9.192;2022-08-05T02:49:08;24.90;99.90
7934;DHT22;4012;48.896;9.192;2022-08-05T02:51:36;24.90;99.90
7934;DHT22;4012;48.896;9.192;2022-08-05T02:54:04;25.00;99.90
7934;DHT22;4012;48.896;9.192;2022-08-05T02:56:32;24.90;99.90
7934;DHT22;4012;48.896;9.192;2022-08-05T02:58:59;24.90;99.90
7934;DHT22;4012;48.896;9.192;2022-08-05T03:01:25;25.00;99.90
7934;DHT22;4012;48.896;9.192;2022-08-05T03:03:57;25.00;99.90
7934;DHT22;4012;48.896;9.192;2022-08-05T03:06:25;25.00;99.90
7934;DHT22;4012;48.896;9.192;2022-08-05T03:08:52;25.00;99.90
7934;DHT22;4012;48.896;9.192;2022-08-05T03:11:19;25.00;99.90
7934;DHT22;4012;48.896;9.192;2022-08-05T03:13:45;25.00;99.90
7934;DHT22;4012;48.896;9.192;2022-08-05T03:16:11;25.00;99.90
7934;DHT22;4012;48.896;9.192;2022-08-05T03:18:37;25.00;99.90
7934;DHT22;4012;48.896;9.192;2022-08-05T03:21:03;25.00;99.90
7934;DHT22;4012;48.896;9.192;2022-08-05T03:23:29;25.00;99.90
7934;DHT22;4012;48.896;9.192;2022-08-05T03:25:54;25.00;99.90
7934;DHT22;4012;48.896;9.192;2022-08-05T03:28:20;25.00;99.90
7934;DHT22;4012;48.896;9.192;2022-08-05T03:30:47;24.90;99.90
7934;DHT22;4012;48.896;9.192;2022-08-05T03:33:13;24.90;99.90
7934;DHT22;4012;48.896;9.192;2022-08-05T03:35:40;25.00;99.90
7934;DHT22;4012;48.896;9.192;2022-08-05T03:38:06;24.90;99.90
7934;DHT22;4012;48.896;9.192;2022-08-05T03:40:32;25.00;99.90
7934;DHT22;4012;48.896;9.192;2022-08-05T03:42:57;25.00;99.90
7934;DHT22;4012;48.896;9.192;2022-08-05T03:45:23;25.00;99.90
7934;DHT22;4012;48.896;9.192;2022-08-05T03:47:50;25.00;99.90
7934;DHT22;4012;48.896;9.192;2022-08-05T03:50:15;24.90;99.90
7934;DHT22;4012;48.896;9.192;2022-08-05T03:52:52;24.90;99.90
7934;DHT22;4012;48.896;9.192;2022-08-05T03:55:27;24.90;99.90
7934;DHT22;4012;48.896;9.192;2022-08-05T03:57:56;24.80;99.90
7934;DHT22;4012;48.896;9.192;2022-08-05T04:00:24;24.80;99.90
7934;DHT22;4012;48.896;9.192;2022-08-05T04:02:57;24.80;99.90
7934;DHT22;4012;48.896;9.192;2022-08-05T04:05:26;24.70;99.90
7934;DHT22;4012;48.896;9.192;2022-08-05T04:07:52;24.70;99.90
7934;DHT22;4012;48.896;9.192;2022-08-05T04:10:18;24.60;99.90
7934;DHT22;4012;48.896;9.192;2022-08-05T04:12:44;24.60;99.90
7934;DHT22;4012;48.896;9.192;2022-08-05T04:15:11;24.60;99.90
7934;DHT22;4012;48.896;9.192;2022-08-05T04:17:36;24.60;99.90
7934;DHT22;4012;48.896;9.192;2022-08-05T04:20:03;24.50;99.90
7934;DHT22;4012;48.896;9.192;2022-08-05T04:22:29;24.50;99.90
7934;DHT22;4012;48.896;9.192;2022-08-05T04:24:54;24.40;99.90
7934;DHT22;4012;48.896;9.192;2022-08-05T04:27:20;24.40;99.90
7934;DHT22;4012;48.896;9.192;2022-08-05T04:29:45;24.50;99.90
7934;DHT22;4012;48.896;9.192;2022-08-05T04:32:11;24.60;99.90
7934;DHT22;4012;48.896;9.192;2022-08-05T04:34:37;24.60;99.90
7934;DHT22;4012;48.896;9.192;2022-08-05T04:37:03;24.60;99.90
7934;DHT22;4012;48.896;9.192;2022-08-05T04:39:29;24.70;99.90
7934;DHT22;4012;48.896;9.192;2022-08-05T04:41:55;24.70;99.90
7934;DHT22;4012;48.896;9.192;2022-08-05T04:44:20;24.70;99.90
7934;DHT22;4012;48.896;9.192;2022-08-05T04:46:46;24.70;99.90
7934;DHT22;4012;48.896;9.192;2022-08-05T04:49:11;24.70;99.90
7934;DHT22;4012;48.896;9.192;2022-08-05T04:51:37;24.70;99.90
7934;DHT22;4012;48.896;9.192;2022-08-05T04:54:03;24.70;99.90
7934;DHT22;4012;48.896;9.192;2022-08-05T04:56:28;24.60;99.90
7934;DHT22;4012;48.896;9.192;2022-08-05T04:58:54;24.50;99.90
7934;DHT22;4012;48.896;9.192;2022-08-05T05:01:19;24.50;99.90
7934;DHT22;4012;48.896;9.192;2022-08-05T05:03:45;24.50;99.90
7934;DHT22;4012;48.896;9.192;2022-08-05T05:06:11;24.30;99.90
7934;DHT22;4012;48.896;9.192;2022-08-05T05:08:38;24.40;99.90
7934;DHT22;4012;48.896;9.192;2022-08-05T05:11:04;24.50;99.90
7934;DHT22;4012;48.896;9.192;2022-08-05T05:13:30;24.50;99.90
7934;DHT22;4012;48.896;9.192;2022-08-05T05:15:56;24.50;99.90
7934;DHT22;4012;48.896;9.192;2022-08-05T05:18:21;24.60;99.90
7934;DHT22;4012;48.896;9.192;2022-08-05T05:20:47;24.50;99.90
7934;DHT22;4012;48.896;9.192;2022-08-05T05:23:13;24.60;99.90
7934;DHT22;4012;48.896;9.192;2022-08-05T05:25:43;24.60;99.90
7934;DHT22;4012;48.896;9.192;2022-08-05T05:28:09;24.80;99.90
7934;DHT22;4012;48.896;9.192;2022-08-05T05:30:37;24.80;99.90
7934;DHT22;4012;48.896;9.192;2022-08-05T05:33:04;24.80;99.90
7934;DHT22;4012;48.896;9.192;2022-08-05T05:35:31;24.90;99.90
7934;DHT22;4012;48.896;9.192;2022-08-05T05:37:59;25.00;99.90
7934;DHT22;4012;48.896;9.192;2022-08-05T05:40:26;25.00;99.90
7934;DHT22;4012;48.896;9.192;2022-08-05T05:42:52;24.90;99.90
7934;DHT22;4012;48.896;9.192;2022-08-05T05:45:18;24.90;99.90
7934;DHT22;4012;48.896;9.192;2022-08-05T05:47:45;25.00;99.90
7934;DHT22;4012;48.896;9.192;2022-08-05T05:50:15;25.10;99.90
7934;DHT22;4012;48.896;9.192;2022-08-05T05:52:42;25.20;99.90
7934;DHT22;4012;48.896;9.192;2022-08-05T05:55:10;25.20;99.90
7934;DHT22;4012;48.896;9.192;2022-08-05T05:57:37;25.20;99.90
7934;DHT22;4012;48.896;9.192;2022-08-05T06:00:05;25.20;99.90
7934;DHT22;4012;48.896;9.192;2022-08-05T06:02:31;25.30;99.90
7934;DHT22;4012;48.896;9.192;2022-08-05T06:04:56;25.30;99.90
7934;DHT22;4012;48.896;9.192;2022-08-05T06:07:22;25.40;99.90
7934;DHT22;4012;48.896;9.192;2022-08-05T06:09:48;25.40;99.90
7934;DHT22;4012;48.896;9.192;2022-08-05T06:12:13;25.50;99.90
7934;DHT22;4012;48.896;9.192;2022-08-05T06:14:39;25.40;99.90
7934;DHT22;4012;48.896;9.192;2022-08-05T06:17:09;25.50;99.90
7934;DHT22;4012;48.896;9.192;2022-08-05T06:19:34;25.50;99.90
7934;DHT22;4012;48.896;9.192;2022-08-05T06:22:00;25.60;99.90
7934;DHT22;4012;48.896;9.192;2022-08-05T06:24:26;25.80;99.90
7934;DHT22;4012;48.896;9.192;2022-08-05T06:26:51;25.80;99.90
7934;DHT22;4012;48.896;9.192;2022-08-05T06:29:17;25.90;99.90
7934;DHT22;4012;48.896;9.192;2022-08-05T06:31:43;26.70;99.90
7934;DHT22;4012;48.896;9.192;2022-08-05T06:34:08;28.30;99.90
7934;DHT22;4012;48.896;9.192;2022-08-05T06:36:34;29.60;99.90
7934;DHT22;4012;48.896;9.192;2022-08-05T06:38:59;30.40;99.90
7934;DHT22;4012;48.896;9.192;2022-08-05T06:41:25;31.70;99.90
7934;DHT22;4012;48.896;9.192;2022-08-05T06:43:51;32.20;99.90
7934;DHT22;4012;48.896;9.192;2022-08-05T06:46:16;32.30;99.90
7934;DHT22;4012;48.896;9.192;2022-08-05T06:48:42;32.30;99.90
7934;DHT22;4012;48.896;9.192;2022-08-05T06:51:10;32.30;99.90
7934;DHT22;4012;48.896;9.192;2022-08-05T06:53:36;33.10;99.90
7934;DHT22;4012;48.896;9.192;2022-08-05T06:56:02;33.70;99.90
7934;DHT22;4012;48.896;9.192;2022-08-05T06:58:29;33.30;99.90
7934;DHT22;4012;48.896;9.192;2022-08-05T07:00:57;32.90;99.90
7934;DHT22;4012;48.896;9.192;2022-08-05T07:03:24;31.80;99.90
7934;DHT22;4012;48.896;9.192;2022-08-05T07:05:50;31.20;99.90
7934;DHT22;4012;48.896;9.192;2022-08-05T07:08:15;32.40;99.90
7934;DHT22;4012;48.896;9.192;2022-08-05T07:10:41;31.10;99.90
7934;DHT22;4012;48.896;9.192;2022-08-05T07:13:06;30.90;99.90
7934;DHT22;4012;48.896;9.192;2022-08-05T07:15:51;32.50;99.90
7934;DHT22;4012;48.896;9.192;2022-08-05T07:18:35;31.00;99.90
7934;DHT22;4012;48.896;9.192;2022-08-05T07:21:00;31.40;99.90
7934;DHT22;4012;48.896;9.192;2022-08-05T07:23:27;32.80;99.90
7934;DHT22;4012;48.896;9.192;2022-08-05T07:25:53;34.60;99.90
7934;DHT22;4012;48.896;9.192;2022-08-05T07:28:18;35.40;99.90
7934;DHT22;4012;48.896;9.192;2022-08-05T07:30:44;36.00;99.90
7934;DHT22;4012;48.896;9.192;2022-08-05T07:33:11;36.10;99.90
7934;DHT22;4012;48.896;9.192;2022-08-05T07:35:37;34.60;99.90
7934;DHT22;4012;48.896;9.192;2022-08-05T07:38:03;34.40;99.90
7934;DHT22;4012;48.896;9.192;2022-08-05T07:40:29;35.10;99.90
7934;DHT22;4012;48.896;9.192;2022-08-05T07:42:55;34.90;99.90
7934;DHT22;4012;48.896;9.192;2022-08-05T07:45:20;35.80;99.90
7934;DHT22;4012;48.896;9.192;2022-08-05T07:47:46;35.80;99.90
7934;DHT22;4012;48.896;9.192;2022-08-05T07:50:12;36.10;99.90
7934;DHT22;4012;48.896;9.192;2022-08-05T07:52:42;36.20;99.90
7934;DHT22;4012;48.896;9.192;2022-08-05T07:55:09;35.10;99.90
7934;DHT22;4012;48.896;9.192;2022-08-05T07:57:35;36.40;99.90
7934;DHT22;4012;48.896;9.192;2022-08-05T08:00:03;37.20;99.90
7934;DHT22;4012;48.896;9.192;2022-08-05T08:02:29;37.60;99.90
7934;DHT22;4012;48.896;9.192;2022-08-05T08:04:56;38.10;99.90
7934;DHT22;4012;48.896;9.192;2022-08-05T08:07:22;36.80;99.70
7934;DHT22;4012;48.896;9.192;2022-08-05T08:09:49;34.00;99.90
7934;DHT22;4012;48.896;9.192;2022-08-05T08:12:15;32.60;99.90
7934;DHT22;4012;48.896;9.192;2022-08-05T08:14:41;33.10;99.90
7934;DHT22;4012;48.896;9.192;2022-08-05T08:17:07;34.20;99.90
7934;DHT22;4012;48.896;9.192;2022-08-05T08:19:37;34.20;99.90
7934;DHT22;4012;48.896;9.192;2022-08-05T08:22:03;35.10;99.90
7934;DHT22;4012;48.896;9.192;2022-08-05T08:24:29;35.00;99.90
7934;DHT22;4012;48.896;9.192;2022-08-05T08:26:55;34.90;99.90
7934;DHT22;4012;48.896;9.192;2022-08-05T08:29:21;36.00;99.90
7934;DHT22;4012;48.896;9.192;2022-08-05T08:31:47;36.00;99.90
7934;DHT22;4012;48.896;9.192;2022-08-05T08:34:12;37.00;99.90
7934;DHT22;4012;48.896;9.192;2022-08-05T08:36:39;37.90;99.60
7934;DHT22;4012;48.896;9.192;2022-08-05T08:39:05;37.30;98.70
7934;DHT22;4012;48.896;9.192;2022-08-05T08:41:33;36.10;99.90
7934;DHT22;4012;48.896;9.192;2022-08-05T08:44:00;35.80;99.90
7934;DHT22;4012;48.896;9.192;2022-08-05T08:46:28;35.70;99.90
7934;DHT22;4012;48.896;9.192;2022-08-05T08:48:56;35.70;99.90
7934;DHT22;4012;48.896;9.192;2022-08-05T08:51:23;35.10;99.90
7934;DHT22;4012;48.896;9.192;2022-08-05T08:53:49;35.20;99.90
7934;DHT22;4012;48.896;9.192;2022-08-05T08:56:16;35.20;99.90
7934;DHT22;4012;48.896;9.192;2022-08-05T08:58:42;35.20;99.90
7934;DHT22;4012;48.896;9.192;2022-08-05T09:01:08;35.60;99.90
7934;DHT22;4012;48.896;9.192;2022-08-05T09:03:35;35.90;99.20
7934;DHT22;4012;48.896;9.192;2022-08-05T09:06:01;35.60;99.30
7934;DHT22;4012;48.896;9.192;2022-08-05T09:08:26;36.00;99.00
7934;DHT22;4012;48.896;9.192;2022-08-05T09:10:52;36.80;98.30
7934;DHT22;4012;48.896;9.192;2022-08-05T09:13:18;37.00;96.80
7934;DHT22;4012;48.896;9.192;2022-08-05T09:15:45;37.70;96.40
7934;DHT22;4012;48.896;9.192;2022-08-05T09:18:11;36.70;96.50
7934;DHT22;4012;48.896;9.192;2022-08-05T09:20:37;36.50;97.00
7934;DHT22;4012;48.896;9.192;2022-08-05T09:23:13;37.30;96.60
7934;DHT22;4012;48.896;9.192;2022-08-05T09:25:43;37.00;96.30
7934;DHT22;4012;48.896;9.192;2022-08-05T09:28:28;38.20;95.20
7934;DHT22;4012;48.896;9.192;2022-08-05T09:30:56;39.80;93.30
7934;DHT22;4012;48.896;9.192;2022-08-05T09:33:23;39.90;92.20
7934;DHT22;4012;48.896;9.192;2022-08-05T09:36:00;39.60;91.70
7934;DHT22;4012;48.896;9.192;2022-08-05T09:38:27;37.40;93.30
7934;DHT22;4012;48.896;9.192;2022-08-05T09:40:54;38.20;93.60
7934;DHT22;4012;48.896;9.192;2022-08-05T09:43:27;39.40;92.40
7934;DHT22;4012;48.896;9.192;2022-08-05T09:45:53;39.50;92.00
7934;DHT22;4012;48.896;9.192;2022-08-05T09:48:24;38.90;91.50
7934;DHT22;4012;48.896;9.192;2022-08-05T09:51:01;37.90;92.00
7934;DHT22;4012;48.896;9.192;2022-08-05T09:53:28;37.20;92.50
7934;DHT22;4012;48.896;9.192;2022-08-05T09:55:59;36.50;92.50
7934;DHT22;4012;48.896;9.192;2022-08-05T09:58:25;36.80;92.30
7934;DHT22;4012;48.896;9.192;2022-08-05T10:01:01;37.10;92.10
7934;DHT22;4012;48.896;9.192;2022-08-05T10:03:27;36.50;92.20
7934;DHT22;4012;48.896;9.192;2022-08-05T10:06:08;36.20;91.90
7934;DHT22;4012;48.896;9.192;2022-08-05T10:08:36;36.60;92.30
7934;DHT22;4012;48.896;9.192;2022-08-05T10:11:04;36.00;92.60
7934;DHT22;4012;48.896;9.192;2022-08-05T10:13:38;37.70;91.50
7934;DHT22;4012;48.896;9.192;2022-08-05T10:16:05;37.10;92.00
7934;DHT22;4012;48.896;9.192;2022-08-05T10:18:32;37.20;92.10
7934;DHT22;4012;48.896;9.192;2022-08-05T10:21:00;37.20;92.00
7934;DHT22;4012;48.896;9.192;2022-08-05T10:26:06;35.80;92.80
7934;DHT22;4012;48.896;9.192;2022-08-05T10:28:31;35.90;93.10
7934;DHT22;4012;48.896;9.192;2022-08-05T10:30:58;36.10;93.00
7934;DHT22;4012;48.896;9.192;2022-08-05T10:33:27;37.30;92.60
7934;DHT22;4012;48.896;9.192;2022-08-05T10:35:54;37.70;91.90
7934;DHT22;4012;48.896;9.192;2022-08-05T10:38:22;38.20;91.10
7934;DHT22;4012;48.896;9.192;2022-08-05T10:46:03;36.90;91.50
7934;DHT22;4012;48.896;9.192;2022-08-05T10:51:14;36.90;92.10
7934;DHT22;4012;48.896;9.192;2022-08-05T10:56:27;35.20;92.50
7934;DHT22;4012;48.896;9.192;2022-08-05T11:01:30;34.90;92.30
7934;DHT22;4012;48.896;9.192;2022-08-05T11:04:10;34.10;93.30
7934;DHT22;4012;48.896;9.192;2022-08-05T11:09:45;33.20;94.50
7934;DHT22;4012;48.896;9.192;2022-08-05T11:15:05;34.40;93.70
7934;DHT22;4012;48.896;9.192;2022-08-05T11:17:33;33.50;94.70
7934;DHT22;4012;48.896;9.192;2022-08-05T11:20:06;32.90;95.50
7934;DHT22;4012;48.896;9.192;2022-08-05T11:22:42;32.70;95.70
7934;DHT22;4012;48.896;9.192;2022-08-05T11:25:37;33.60;95.10
7934;DHT22;4012;48.896;9.192;2022-08-05T11:35:54;33.00;95.20
7934;DHT22;4012;48.896;9.192;2022-08-05T11:41:17;33.60;94.70
7934;DHT22;4012;48.896;9.192;2022-08-05T11:46:48;33.90;94.20
7934;DHT22;4012;48.896;9.192;2022-08-05T11:49:17;33.80;94.80
7934;DHT22;4012;48.896;9.192;2022-08-05T11:51:45;34.20;94.20
7934;DHT22;4012;48.896;9.192;2022-08-05T11:54:13;34.00;94.00
7934;DHT22;4012;48.896;9.192;2022-08-05T11:59:16;33.80;94.00
7934;DHT22;4012;48.896;9.192;2022-08-05T12:02:15;33.80;93.90
7934;DHT22;4012;48.896;9.192;2022-08-05T12:04:42;34.00;93.70
7934;DHT22;4012;48.896;9.192;2022-08-05T12:07:10;34.50;93.80
7934;DHT22;4012;48.896;9.192;2022-08-05T12:09:38;33.50;93.80
7934;DHT22;4012;48.896;9.192;2022-08-05T12:12:06;33.60;94.30
7934;DHT22;4012;48.896;9.192;2022-08-05T12:14:42;33.50;94.30
7934;DHT22;4012;48.896;9.192;2022-08-05T12:17:13;33.80;94.10
7934;DHT22;4012;48.896;9.192;2022-08-05T12:19:51;33.40;94.20
7934;DHT22;4012;48.896;9.192;2022-08-05T12:22:19;33.40;94.80
7934;DHT22;4012;48.896;9.192;2022-08-05T12:24:50;33.30;94.60
7934;DHT22;4012;48.896;9.192;2022-08-05T12:30:05;33.70;94.50
7934;DHT22;4012;48.896;9.192;2022-08-05T12:32:32;33.90;94.10
7934;DHT22;4012;48.896;9.192;2022-08-05T12:35:01;33.80;94.30
7934;DHT22;4012;48.896;9.192;2022-08-05T12:37:28;33.00;94.80
7934;DHT22;4012;48.896;9.192;2022-08-05T12:39:56;32.70;95.30
7934;DHT22;4012;48.896;9.192;2022-08-05T12:42:21;32.90;95.30
7934;DHT22;4012;48.896;9.192;2022-08-05T12:44:48;33.40;95.20
7934;DHT22;4012;48.896;9.192;2022-08-05T12:47:26;33.30;95.20
7934;DHT22;4012;48.896;9.192;2022-08-05T12:49:52;33.00;95.20
7934;DHT22;4012;48.896;9.192;2022-08-05T12:52:18;33.20;95.50
7934;DHT22;4012;48.896;9.192;2022-08-05T12:54:45;33.60;95.20
7934;DHT22;4012;48.896;9.192;2022-08-05T12:57:13;33.30;95.00
7934;DHT22;4012;48.896;9.192;2022-08-05T12:59:49;33.60;95.10
7934;DHT22;4012;48.896;9.192;2022-08-05T13:02:20;33.80;94.70
7934;DHT22;4012;48.896;9.192;2022-08-05T13:04:47;33.40;95.10
7934;DHT22;4012;48.896;9.192;2022-08-05T13:07:16;33.30;95.10
7934;DHT22;4012;48.896;9.192;2022-08-05T13:09:51;33.40;95.20
7934;DHT22;4012;48.896;9.192;2022-08-05T13:12:19;33.40;95.30
7934;DHT22;4012;48.896;9.192;2022-08-05T13:14:52;33.40;95.00
7934;DHT22;4012;48.896;9.192;2022-08-05T13:17:20;33.60;95.10
7934;DHT22;4012;48.896;9.192;2022-08-05T13:22:35;33.90;94.80
7934;DHT22;4012;48.896;9.192;2022-08-05T13:25:07;33.80;94.90
7934;DHT22;4012;48.896;9.192;2022-08-05T13:30:00;33.70;95.10
7934;DHT22;4012;48.896;9.192;2022-08-05T13:32:27;33.70;94.80
7934;DHT22;4012;48.896;9.192;2022-08-05T13:34:53;33.10;95.10
7934;DHT22;4012;48.896;9.192;2022-08-05T13:37:20;32.90;96.20
7934;DHT22;4012;48.896;9.192;2022-08-05T13:39:50;32.80;95.90
7934;DHT22;4012;48.896;9.192;2022-08-05T13:42:18;32.30;97.10
7934;DHT22;4012;48.896;9.192;2022-08-05T13:44:44;32.50;97.00
7934;DHT22;4012;48.896;9.192;2022-08-05T13:47:10;32.70;96.90
7934;DHT22;4012;48.896;9.192;2022-08-05T13:49:36;32.50;97.20
7934;DHT22;4012;48.896;9.192;2022-08-05T13:52:17;32.40;97.60
7934;DHT22;4012;48.896;9.192;2022-08-05T13:54:43;32.30;97.50
7934;DHT22;4012;48.896;9.192;2022-08-05T13:57:10;32.00;98.10
7934;DHT22;4012;48.896;9.192;2022-08-05T13:59:37;32.20;98.20
7934;DHT22;4012;48.896;9.192;2022-08-05T14:02:04;32.40;97.90
7934;DHT22;4012;48.896;9.192;2022-08-05T14:04:32;32.20;98.10
7934;DHT22;4012;48.896;9.192;2022-08-05T14:07:22;32.10;98.50
7934;DHT22;4012;48.896;9.192;2022-08-05T14:09:48;31.70;98.50
7934;DHT22;4012;48.896;9.192;2022-08-05T14:12:14;31.70;99.40
7934;DHT22;4012;48.896;9.192;2022-08-05T14:14:39;31.60;98.90
7934;DHT22;4012;48.896;9.192;2022-08-05T14:17:05;31.70;99.10
7934;DHT22;4012;48.896;9.192;2022-08-05T14:19:31;32.00;99.10
7934;DHT22;4012;48.896;9.192;2022-08-05T14:21:57;32.20;98.80
7934;DHT22;4012;48.896;9.192;2022-08-05T14:24:22;31.80;99.10
7934;DHT22;4012;48.896;9.192;2022-08-05T14:26:48;32.20;99.00
7934;DHT22;4012;48.896;9.192;2022-08-05T14:29:14;32.20;98.90
7934;DHT22;4012;48.896;9.192;2022-08-05T14:31:50;31.90;99.80
7934;DHT22;4012;48.896;9.192;2022-08-05T14:34:16;32.10;99.90
7934;DHT22;4012;48.896;9.192;2022-08-05T14:36:42;32.10;99.90
7934;DHT22;4012;48.896;9.192;2022-08-05T14:39:07;32.00;99.90
7934;DHT22;4012;48.896;9.192;2022-08-05T14:41:33;31.90;99.90
7934;DHT22;4012;48.896;9.192;2022-08-05T14:44:00;31.70;99.90
7934;DHT22;4012;48.896;9.192;2022-08-05T14:46:27;31.70;99.90
7934;DHT22;4012;48.896;9.192;2022-08-05T14:48:53;31.90;99.90
7934;DHT22;4012;48.896;9.192;2022-08-05T14:51:19;31.70;99.90
7934;DHT22;4012;48.896;9.192;2022-08-05T14:53:46;31.90;99.90
7934;DHT22;4012;48.896;9.192;2022-08-05T14:56:12;31.70;99.90
7934;DHT22;4012;48.896;9.192;2022-08-05T14:58:38;31.80;99.90
7934;DHT22;4012;48.896;9.192;2022-08-05T15:01:03;31.80;99.90
7934;DHT22;4012;48.896;9.192;2022-08-05T15:03:30;31.00;99.90
7934;DHT22;4012;48.896;9.192;2022-08-05T15:05:56;31.30;99.90
7934;DHT22;4012;48.896;9.192;2022-08-05T15:08:21;31.20;99.90
7934;DHT22;4012;48.896;9.192;2022-08-05T15:10:47;31.00;99.90
7934;DHT22;4012;48.896;9.192;2022-08-05T15:13:13;30.70;99.90
7934;DHT22;4012;48.896;9.192;2022-08-05T15:15:38;30.50;99.90
7934;DHT22;4012;48.896;9.192;2022-08-05T15:18:04;30.10;99.90
7934;DHT22;4012;48.896;9.192;2022-08-05T15:20:30;30.40;99.90
7934;DHT22;4012;48.896;9.192;2022-08-05T15:23:06;30.70;99.90
7934;DHT22;4012;48.896;9.192;2022-08-05T15:25:32;30.70;99.90
7934;DHT22;4012;48.896;9.192;2022-08-05T15:27:59;30.50;99.90
7934;DHT22;4012;48.896;9.192;2022-08-05T15:30:25;30.10;99.90
7934;DHT22;4012;48.896;9.192;2022-08-05T15:32:51;30.40;99.90
7934;DHT22;4012;48.896;9.192;2022-08-05T15:35:16;30.30;99.90
7934;DHT22;4012;48.896;9.192;2022-08-05T15:37:42;30.00;99.90
7934;DHT22;4012;48.896;9.192;2022-08-05T15:40:08;30.40;99.90
7934;DHT22;4012;48.896;9.192;2022-08-05T15:42:34;30.60;99.90
7934;DHT22;4012;48.896;9.192;2022-08-05T15:45:00;30.30;99.90
7934;DHT22;4012;48.896;9.192;2022-08-05T15:47:26;30.10;99.90
7934;DHT22;4012;48.896;9.192;2022-08-05T15:49:51;29.80;99.90
7934;DHT22;4012;48.896;9.192;2022-08-05T15:52:18;30.00;99.90
7934;DHT22;4012;48.896;9.192;2022-08-05T15:54:44;29.90;99.90
7934;DHT22;4012;48.896;9.192;2022-08-05T15:57:11;29.70;99.90
7934;DHT22;4012;48.896;9.192;2022-08-05T15:59:36;30.00;99.90
7934;DHT22;4012;48.896;9.192;2022-08-05T16:02:02;30.00;99.90
7934;DHT22;4012;48.896;9.192;2022-08-05T16:04:28;30.00;99.90
7934;DHT22;4012;48.896;9.192;2022-08-05T16:06:54;29.60;99.90
7934;DHT22;4012;48.896;9.192;2022-08-05T16:09:19;29.80;99.90
7934;DHT22;4012;48.896;9.192;2022-08-05T16:11:46;29.50;99.90
7934;DHT22;4012;48.896;9.192;2022-08-05T16:14:11;29.40;99.90
7934;DHT22;4012;48.896;9.192;2022-08-05T16:16:37;29.50;99.90
7934;DHT22;4012;48.896;9.192;2022-08-05T16:19:03;29.50;99.90
7934;DHT22;4012;48.896;9.192;2022-08-05T16:21:29;29.40;99.90
7934;DHT22;4012;48.896;9.192;2022-08-05T16:23:55;29.20;99.90
7934;DHT22;4012;48.896;9.192;2022-08-05T16:26:21;29.10;99.90
7934;DHT22;4012;48.896;9.192;2022-08-05T16:28:47;28.80;99.90
7934;DHT22;4012;48.896;9.192;2022-08-05T16:31:13;28.70;99.90
7934;DHT22;4012;48.896;9.192;2022-08-05T16:33:39;28.70;99.90
7934;DHT22;4012;48.896;9.192;2022-08-05T16:36:05;28.80;99.90
7934;DHT22;4012;48.896;9.192;2022-08-05T16:38:31;28.80;99.90
7934;DHT22;4012;48.896;9.192;2022-08-05T16:40:58;28.70;99.90
7934;DHT22;4012;48.896;9.192;2022-08-05T16:43:25;28.80;99.90
7934;DHT22;4012;48.896;9.192;2022-08-05T16:45:52;28.60;99.90
7934;DHT22;4012;48.896;9.192;2022-08-05T16:48:19;28.70;99.90
7934;DHT22;4012;48.896;9.192;2022-08-05T16:50:45;28.50;99.90
7934;DHT22;4012;48.896;9.192;2022-08-05T16:53:11;28.30;99.90
7934;DHT22;4012;48.896;9.192;2022-08-05T16:55:37;28.10;99.90
7934;DHT22;4012;48.896;9.192;2022-08-05T16:58:03;28.10;99.90
7934;DHT22;4012;48.896;9.192;2022-08-05T17:00:29;28.10;99.90